createdAt,value
2019-05-22T00:01:58.776Z,64.14
2019-05-22T00:04:33.467Z,63.99
2019-05-22T00:07:08.456Z,64.27
2019-05-22T00:09:42.186Z,63.96
2019-05-22T00:12:18.949Z,64.00
2019-05-22T00:14:52.799Z,64.03
2019-05-22T00:17:28.910Z,64.10
2019-05-22T00:20:01.637Z,64.03
2019-05-22T00:22:35.892Z,63.97
2019-05-22T00:25:11.814Z,64.05
2019-05-22T00:27:45.902Z,64.43
2019-05-22T00:30:20.583Z,64.19
2019-05-22T00:32:53.545Z,64.18
2019-05-22T00:35:25.314Z,64.12
2019-05-22T00:37:57.862Z,64.03
2019-05-22T00:40:31.603Z,64.47
2019-05-22T00:43:13.400Z,64.25
2019-05-22T00:45:39.587Z,64.34
2019-05-22T00:48:11.494Z,64.56
2019-05-22T00:50:53.820Z,64.61
2019-05-22T00:53:44.915Z,64.52
2019-05-22T00:56:51.284Z,64.50
2019-05-22T00:59:31.891Z,64.86
2019-05-22T01:02:05.660Z,64.77
2019-05-22T01:04:40.393Z,64.87
2019-05-22T01:07:18.593Z,64.54
2019-05-22T01:09:52.115Z,64.39
2019-05-22T01:12:33.386Z,64.31
2019-05-22T01:15:08.590Z,64.42
2019-05-22T01:17:41.640Z,64.47
2019-05-22T01:20:16.568Z,64.48
2019-05-22T01:22:49.917Z,64.30
2019-05-22T01:25:26.975Z,64.22
2019-05-22T01:28:00.651Z,64.16
2019-05-22T01:30:40.594Z,64.11
2019-05-22T01:33:16.657Z,64.06
2019-05-22T01:36:06.041Z,64.02
2019-05-22T01:38:40.356Z,64.11
2019-05-22T01:41:17.955Z,64.16
2019-05-22T01:43:52.148Z,64.29
2019-05-22T01:46:25.411Z,64.13
2019-05-22T01:48:59.770Z,64.22
2019-05-22T01:51:31.151Z,64.10
2019-05-22T01:54:02.584Z,64.02
2019-05-22T01:56:38.701Z,64.24
2019-05-22T01:59:17.197Z,64.13
2019-05-22T02:01:57.824Z,64.34
2019-05-22T02:04:29.054Z,64.37
2019-05-22T02:07:00.414Z,64.16
2019-05-22T02:09:35.490Z,64.39
2019-05-22T02:12:18.026Z,64.26
2019-05-22T02:14:50.662Z,64.19
2019-05-22T02:17:27.018Z,64.16
2019-05-22T02:19:59.025Z,64.40
2019-05-22T02:22:30.198Z,64.52
2019-05-22T02:25:02.855Z,64.37
2019-05-22T02:27:35.398Z,64.29
2019-05-22T02:30:08.605Z,64.33
2019-05-22T02:32:41.254Z,64.30
2019-05-22T02:35:12.901Z,64.25
2019-05-22T02:37:44.776Z,64.25
2019-05-22T02:40:20.529Z,64.10
2019-05-22T02:42:52.328Z,64.09
2019-05-22T02:45:23.597Z,64.19
2019-05-22T02:47:56.101Z,64.03
2019-05-22T02:50:27.936Z,63.83
2019-05-22T02:53:01.727Z,64.22
2019-05-22T02:55:33.472Z,64.08
2019-05-22T02:58:06.029Z,64.14
2019-05-22T03:00:58.367Z,64.18
2019-05-22T03:03:31.469Z,64.15
2019-05-22T03:06:03.960Z,64.01
2019-05-22T03:09:10.621Z,64.04
2019-05-22T03:11:45.548Z,64.06
2019-05-22T03:14:18.153Z,63.95
2019-05-22T03:16:52.113Z,64.01
2019-05-22T03:19:34.184Z,64.00
2019-05-22T03:22:21.579Z,63.98
2019-05-22T03:24:53.881Z,63.88
2019-05-22T03:27:46.964Z,63.97
2019-05-22T03:30:32.639Z,64.00
2019-05-22T03:33:06.137Z,63.97
2019-05-22T03:35:48.498Z,64.10
2019-05-22T03:38:20.624Z,63.97
2019-05-22T03:40:53.070Z,64.09
2019-05-22T03:43:27.730Z,64.07
2019-05-22T03:46:04.847Z,64.14
2019-05-22T03:48:37.622Z,64.29
2019-05-22T03:51:12.476Z,64.26
2019-05-22T03:53:44.047Z,64.27
2019-05-22T03:56:16.450Z,64.53
2019-05-22T03:58:47.780Z,63.78
2019-05-22T04:01:21.291Z,63.61
2019-05-22T04:03:53.026Z,64.56
2019-05-22T04:06:25.802Z,64.50
2019-05-22T04:09:00.314Z,64.59
2019-05-22T04:11:36.567Z,64.70
2019-05-22T04:14:07.817Z,64.90
2019-05-22T04:16:39.033Z,64.95
2019-05-22T04:19:10.794Z,64.89
2019-05-22T04:21:42.421Z,64.79
2019-05-22T04:24:13.735Z,64.10
2019-05-22T04:26:45.257Z,64.85
2019-05-22T04:29:16.873Z,64.84
2019-05-22T04:31:53.855Z,65.06
2019-05-22T04:34:25.460Z,65.01
2019-05-22T04:36:58.249Z,64.82
2019-05-22T04:39:32.907Z,64.87
2019-05-22T04:42:04.204Z,64.77
2019-05-22T04:44:36.210Z,64.88
2019-05-22T04:47:07.925Z,64.90
2019-05-22T04:49:39.611Z,64.70
2019-05-22T04:52:11.196Z,64.62
2019-05-22T04:54:42.530Z,64.72
2019-05-22T04:57:15.464Z,64.58
2019-05-22T04:59:47.706Z,65.03
2019-05-22T05:02:19.335Z,64.65
2019-05-22T05:04:51.218Z,64.81
2019-05-22T05:07:22.771Z,64.65
2019-05-22T05:09:53.953Z,64.57
2019-05-22T05:12:25.630Z,64.40
2019-05-22T05:14:58.429Z,64.41
2019-05-22T05:17:29.697Z,64.51
2019-05-22T05:20:00.991Z,64.56
2019-05-22T05:22:43.442Z,64.42
2019-05-22T05:25:16.194Z,64.47
2019-05-22T05:27:47.747Z,64.45
2019-05-22T05:30:20.675Z,64.42
2019-05-22T05:32:53.752Z,64.42
2019-05-22T05:35:26.908Z,64.49
2019-05-22T05:37:59.050Z,64.34
2019-05-22T05:40:33.787Z,64.30
2019-05-22T05:43:07.148Z,64.23
2019-05-22T05:45:40.711Z,64.24
2019-05-22T05:48:15.774Z,64.12
2019-05-22T05:51:36.371Z,64.04
2019-05-22T05:54:19.215Z,64.08
2019-05-22T05:56:51.265Z,64.19
2019-05-22T05:59:22.606Z,64.13
2019-05-22T06:01:55.643Z,64.03
2019-05-22T06:04:35.115Z,63.91
2019-05-22T06:07:24.997Z,63.97
2019-05-22T06:10:22.070Z,64.06
2019-05-22T06:12:53.329Z,64.07
2019-05-22T06:15:46.640Z,63.83
2019-05-22T06:18:31.721Z,63.83
2019-05-22T06:21:04.638Z,63.82
2019-05-22T06:24:20.120Z,63.69
2019-05-22T06:27:02.510Z,63.62
2019-05-22T06:29:43.420Z,63.62
2019-05-22T06:33:02.350Z,63.47
2019-05-22T06:35:37.624Z,63.41
2019-05-22T06:38:54.919Z,63.50
2019-05-22T06:41:31.504Z,63.30
2019-05-22T06:44:40.796Z,63.20
2019-05-22T06:47:15.817Z,63.04
2019-05-22T06:49:49.066Z,62.99
2019-05-22T06:52:20.423Z,62.94
2019-05-22T06:54:53.351Z,62.80
2019-05-22T06:57:29.630Z,62.93
2019-05-22T07:00:15.032Z,62.80
2019-05-22T07:02:47.098Z,62.71
2019-05-22T07:05:19.133Z,62.76
2019-05-22T07:07:53.387Z,62.67
2019-05-22T07:10:25.954Z,62.67
2019-05-22T07:12:57.897Z,62.53
2019-05-22T07:15:46.561Z,62.50
2019-05-22T07:18:19.738Z,62.52
2019-05-22T07:20:54.674Z,62.36
2019-05-22T07:23:35.133Z,62.38
2019-05-22T07:26:08.336Z,62.30
2019-05-22T07:28:39.921Z,62.14
2019-05-22T07:31:11.661Z,62.11
2019-05-22T07:33:43.100Z,62.08
2019-05-22T07:36:17.500Z,62.12
2019-05-22T07:38:50.085Z,61.99
2019-05-22T07:41:21.998Z,62.05
2019-05-22T07:43:53.840Z,62.00
2019-05-22T07:46:25.385Z,62.00
2019-05-22T07:48:57.010Z,62.03
2019-05-22T07:51:28.458Z,62.00
2019-05-22T07:53:59.899Z,61.84
2019-05-22T07:56:31.951Z,61.87
2019-05-22T07:59:03.579Z,61.71
2019-05-22T08:01:35.119Z,61.59
2019-05-22T08:04:06.571Z,61.56
2019-05-22T08:06:38.258Z,61.55
2019-05-22T08:09:11.976Z,61.45
2019-05-22T08:11:43.169Z,61.38
2019-05-22T08:14:14.559Z,61.32
2019-05-22T08:16:45.974Z,61.30
2019-05-22T08:19:17.483Z,61.33
2019-05-22T08:21:49.013Z,61.32
2019-05-22T08:24:20.920Z,61.37
2019-05-22T08:26:54.870Z,61.38
2019-05-22T08:29:26.348Z,61.44
2019-05-22T08:31:58.845Z,61.48
2019-05-22T08:34:30.199Z,61.44
2019-05-22T08:37:03.050Z,61.36
2019-05-22T08:39:34.468Z,61.32
2019-05-22T08:42:07.254Z,61.46
2019-05-22T08:44:41.291Z,61.40
2019-05-22T08:47:13.328Z,61.28
2019-05-22T08:49:44.843Z,61.23
2019-05-22T08:52:23.514Z,61.20
2019-05-22T08:54:50.563Z,61.20
2019-05-22T08:57:22.377Z,61.29
2019-05-22T08:59:53.831Z,61.29
2019-05-22T09:02:26.894Z,61.29
2019-05-22T09:04:58.678Z,61.19
2019-05-22T09:07:30.393Z,60.97
2019-05-22T09:10:01.792Z,60.91
2019-05-22T09:12:33.412Z,60.78
2019-05-22T09:15:05.059Z,60.73
2019-05-22T09:17:36.793Z,60.79
2019-05-22T09:20:08.523Z,60.79
2019-05-22T09:22:41.619Z,60.70
2019-05-22T09:25:16.347Z,60.72
2019-05-22T09:27:48.524Z,60.72
2019-05-22T09:30:22.651Z,60.92
2019-05-22T09:32:54.296Z,60.66
2019-05-22T09:35:26.178Z,60.73
2019-05-22T09:37:58.158Z,60.87
2019-05-22T09:40:33.065Z,60.97
2019-05-22T09:43:05.256Z,61.03
2019-05-22T09:45:37.684Z,61.07
2019-05-22T09:48:10.407Z,61.11
2019-05-22T09:50:42.377Z,61.14
2019-05-22T09:53:13.983Z,61.05
2019-05-22T09:55:47.353Z,60.92
2019-05-22T09:58:22.443Z,60.90
2019-05-22T10:00:53.967Z,61.01
2019-05-22T10:03:25.313Z,60.89
2019-05-22T10:05:57.246Z,61.01
2019-05-22T10:08:29.165Z,60.88
2019-05-22T10:11:00.755Z,60.75
2019-05-22T10:13:32.954Z,60.64
2019-05-22T10:16:04.947Z,60.69
2019-05-22T10:18:36.579Z,60.65
2019-05-22T10:21:08.248Z,60.61
2019-05-22T10:23:39.783Z,60.71
2019-05-22T10:26:11.015Z,60.77
2019-05-22T10:28:42.754Z,60.58
2019-05-22T10:31:17.615Z,60.62
2019-05-22T10:33:52.099Z,60.69
2019-05-22T10:36:23.208Z,60.63
2019-05-22T10:38:54.630Z,60.77
2019-05-22T10:41:26.800Z,60.78
2019-05-22T10:43:58.204Z,60.76
2019-05-22T10:46:30.418Z,60.81
2019-05-22T10:49:02.757Z,60.77
2019-05-22T10:51:34.285Z,60.91
2019-05-22T10:54:06.047Z,60.89
2019-05-22T10:57:01.210Z,60.86
2019-05-22T10:59:31.762Z,60.84
2019-05-22T11:02:04.116Z,60.85
2019-05-22T11:04:42.859Z,60.86
2019-05-22T11:07:15.637Z,60.87
2019-05-22T11:09:47.721Z,60.79
2019-05-22T11:12:20.953Z,60.76
2019-05-22T11:14:52.520Z,60.62
2019-05-22T11:17:24.349Z,60.90
2019-05-22T11:19:55.804Z,60.80
2019-05-22T11:22:27.298Z,60.82
2019-05-22T11:24:58.900Z,60.80
2019-05-22T11:27:31.173Z,60.74
2019-05-22T11:30:02.906Z,60.63
2019-05-22T11:32:35.559Z,60.57
2019-05-22T11:35:07.658Z,60.36
2019-05-22T11:37:38.997Z,60.29
2019-05-22T11:40:13.260Z,60.27
2019-05-22T11:42:55.620Z,60.27
2019-05-22T11:45:28.183Z,60.28
2019-05-22T11:48:00.213Z,60.31
2019-05-22T11:50:33.468Z,60.28
2019-05-22T11:53:08.043Z,60.25
2019-05-22T11:55:45.736Z,60.09
2019-05-22T11:58:13.512Z,60.12
2019-05-22T12:00:45.214Z,60.14
2019-05-22T12:03:16.708Z,60.23
2019-05-22T12:05:49.215Z,60.19
2019-05-22T12:08:21.249Z,60.27
2019-05-22T12:10:52.926Z,60.21
2019-05-22T12:13:24.877Z,60.22
2019-05-22T12:15:58.643Z,60.25
2019-05-22T12:18:30.985Z,60.17
2019-05-22T12:21:04.422Z,59.99
2019-05-22T12:23:37.778Z,59.82
2019-05-22T12:26:09.981Z,59.71
2019-05-22T12:28:41.634Z,59.65
2019-05-22T12:31:13.270Z,59.47
2019-05-22T12:33:44.704Z,59.46
2019-05-22T12:36:16.214Z,59.41
2019-05-22T12:38:47.734Z,59.43
2019-05-22T12:41:20.365Z,59.39
2019-05-22T12:43:53.038Z,59.32
2019-05-22T12:46:25.874Z,58.19
2019-05-22T12:48:57.927Z,58.68
2019-05-22T12:51:31.363Z,58.55
2019-05-22T12:54:03.585Z,58.61
2019-05-22T12:56:35.747Z,58.68
2019-05-22T12:59:08.644Z,58.78
2019-05-22T13:01:40.636Z,58.87
2019-05-22T13:04:12.976Z,58.87
2019-05-22T13:06:45.296Z,58.83
2019-05-22T13:09:16.749Z,58.92
2019-05-22T13:11:48.214Z,58.86
2019-05-22T13:14:19.768Z,58.93
2019-05-22T13:16:51.348Z,58.96
2019-05-22T13:19:24.317Z,58.93
2019-05-22T13:21:58.124Z,58.82
2019-05-22T13:24:29.745Z,58.84
2019-05-22T13:27:02.881Z,58.75
2019-05-22T13:29:35.010Z,58.79
2019-05-22T13:32:06.891Z,58.73
2019-05-22T13:34:42.168Z,58.69
2019-05-22T13:37:13.554Z,58.63
2019-05-22T13:39:44.948Z,58.52
2019-05-22T13:42:16.304Z,58.40
2019-05-22T13:44:48.360Z,58.24
2019-05-22T13:47:19.878Z,58.29
2019-05-22T13:49:51.466Z,58.24
2019-05-22T13:52:23.336Z,58.14
2019-05-22T13:54:55.150Z,58.03
2019-05-22T13:57:27.511Z,57.97
2019-05-22T13:59:59.962Z,57.97
2019-05-22T14:02:31.831Z,57.94
2019-05-22T14:05:03.235Z,57.93
2019-05-22T14:07:34.772Z,57.89
2019-05-22T14:10:07.802Z,57.84
2019-05-22T14:12:40.177Z,57.64
2019-05-22T14:15:12.970Z,57.45
2019-05-22T14:17:44.230Z,57.14
2019-05-22T14:20:16.747Z,56.78
2019-05-22T14:22:48.063Z,56.29
2019-05-22T14:25:21.725Z,55.60
2019-05-22T14:27:53.110Z,55.35
2019-05-22T14:30:25.442Z,55.24
2019-05-22T14:33:03.534Z,55.01
2019-05-22T14:35:47.471Z,54.74
2019-05-22T14:38:31.182Z,54.77
2019-05-22T14:41:12.077Z,54.73
2019-05-22T14:43:43.791Z,54.43
2019-05-22T14:46:15.117Z,54.08
2019-05-22T14:48:46.331Z,53.86
2019-05-22T14:51:20.118Z,53.41
2019-05-22T14:53:53.144Z,53.14
2019-05-22T14:56:25.140Z,53.02
2019-05-22T14:58:57.067Z,52.77
2019-05-22T15:01:29.003Z,52.64
2019-05-22T15:04:00.262Z,52.48
2019-05-22T15:06:31.774Z,52.63
2019-05-22T15:09:03.131Z,52.54
2019-05-22T15:11:34.411Z,52.66
2019-05-22T15:14:05.873Z,52.58
2019-05-22T15:16:37.139Z,52.47
2019-05-22T15:19:09.092Z,52.38
2019-05-22T15:21:40.583Z,52.50
2019-05-22T15:24:12.514Z,52.51
2019-05-22T15:26:44.304Z,52.56
2019-05-22T15:29:15.549Z,52.56
2019-05-22T15:31:47.113Z,52.59
2019-05-22T15:34:18.473Z,52.56
2019-05-22T15:36:49.900Z,52.28
2019-05-22T15:39:23.756Z,52.17
2019-05-22T15:41:56.980Z,51.79
2019-05-22T15:44:29.375Z,51.41
2019-05-22T15:47:00.773Z,51.20
2019-05-22T15:49:32.951Z,50.93
2019-05-22T15:52:04.755Z,50.91
2019-05-22T15:54:36.572Z,50.81
2019-05-22T15:57:09.883Z,50.78
2019-05-22T15:59:41.788Z,50.77
2019-05-22T16:02:15.157Z,50.73
2019-05-22T16:04:47.726Z,50.63
2019-05-22T16:07:19.303Z,50.60
2019-05-22T16:09:52.803Z,50.52
2019-05-22T16:12:25.093Z,50.50
2019-05-22T16:14:56.538Z,50.30
2019-05-22T16:17:28.053Z,50.30
2019-05-22T16:20:00.774Z,50.12
2019-05-22T16:22:32.976Z,50.18
2019-05-22T16:25:04.591Z,50.22
2019-05-22T16:27:35.867Z,50.10
2019-05-22T16:30:07.881Z,49.80
2019-05-22T16:32:39.309Z,49.58
2019-05-22T16:35:10.978Z,49.42
2019-05-22T16:37:42.431Z,49.56
2019-05-22T16:40:15.663Z,49.49
2019-05-22T16:42:47.647Z,49.54
2019-05-22T16:45:19.870Z,49.60
2019-05-22T16:47:51.450Z,49.58
2019-05-22T16:50:22.696Z,49.60
2019-05-22T16:52:56.259Z,49.43
2019-05-22T16:55:28.254Z,49.55
2019-05-22T16:57:59.920Z,49.69
2019-05-22T17:00:32.235Z,49.72
2019-05-22T17:03:05.279Z,49.60
2019-05-22T17:05:38.797Z,49.79
2019-05-22T17:08:14.417Z,49.85
2019-05-22T17:10:52.137Z,49.84
2019-05-22T17:13:23.752Z,49.93
2019-05-22T17:15:55.027Z,49.82
2019-05-22T17:18:45.558Z,49.71
2019-05-22T17:21:04.250Z,49.52
2019-05-22T17:23:36.803Z,49.64
2019-05-22T17:26:08.520Z,47.58
2019-05-22T17:28:40.738Z,48.08
2019-05-22T17:31:12.045Z,48.27
2019-05-22T17:33:43.869Z,48.29
2019-05-22T17:36:16.085Z,48.30
2019-05-22T17:38:48.155Z,48.16
2019-05-22T17:41:20.820Z,48.20
2019-05-22T17:43:52.694Z,47.89
2019-05-22T17:46:24.599Z,47.70
2019-05-22T17:48:56.283Z,47.54
2019-05-22T17:51:28.765Z,47.52
2019-05-22T17:54:00.493Z,47.32
2019-05-22T17:56:32.521Z,47.43
2019-05-22T17:59:05.011Z,47.48
2019-05-22T18:01:37.433Z,47.51
2019-05-22T18:04:09.346Z,47.43
2019-05-22T18:06:41.286Z,47.61
2019-05-22T18:09:13.172Z,47.67
2019-05-22T18:11:44.694Z,47.84
2019-05-22T18:14:16.750Z,47.93
2019-05-22T18:16:51.511Z,48.11
2019-05-22T18:19:23.935Z,48.53
2019-05-22T18:21:55.943Z,48.63
2019-05-22T18:24:27.863Z,48.92
2019-05-22T18:27:04.062Z,49.19
2019-05-22T18:29:38.800Z,49.28
2019-05-22T18:32:13.027Z,49.51
2019-05-22T18:34:47.322Z,49.58
2019-05-22T18:37:19.294Z,49.64
2019-05-22T18:39:51.159Z,49.81
2019-05-22T18:42:22.918Z,49.88
2019-05-22T18:44:54.381Z,49.94
2019-05-22T18:47:28.757Z,50.01
2019-05-22T18:50:00.578Z,50.14
2019-05-22T18:52:40.959Z,50.28
2019-05-22T18:55:08.186Z,50.36
2019-05-22T18:57:40.035Z,48.84
2019-05-22T19:00:11.701Z,49.60
2019-05-22T19:02:43.149Z,48.30
2019-05-22T19:05:14.898Z,49.15
2019-05-22T19:07:46.373Z,49.51
2019-05-22T19:10:18.779Z,49.79
2019-05-22T19:12:50.454Z,49.95
2019-05-22T19:15:22.751Z,50.10
2019-05-22T19:17:54.686Z,50.22
2019-05-22T19:20:27.089Z,50.43
2019-05-22T19:23:01.227Z,50.51
2019-05-22T19:25:31.629Z,50.65
2019-05-22T19:28:02.900Z,50.69
2019-05-22T19:30:34.234Z,50.79
2019-05-22T19:33:05.621Z,50.92
2019-05-22T19:35:37.100Z,50.92
2019-05-22T19:38:08.722Z,51.04
2019-05-22T19:40:40.253Z,51.04
2019-05-22T19:43:12.703Z,51.10
2019-05-22T19:45:44.020Z,51.15
2019-05-22T19:48:16.861Z,51.18
2019-05-22T19:50:49.138Z,51.29
2019-05-22T19:53:22.382Z,51.27
2019-05-22T19:55:55.249Z,51.26
2019-05-22T19:58:26.909Z,51.28
2019-05-22T20:00:59.676Z,51.18
2019-05-22T20:03:31.743Z,51.19
2019-05-22T20:06:03.727Z,51.20
2019-05-22T20:08:36.759Z,51.21
2019-05-22T20:11:09.055Z,51.10
2019-05-22T20:13:40.808Z,51.21
2019-05-22T20:16:12.679Z,51.26
2019-05-22T20:18:44.062Z,51.28
2019-05-22T20:21:16.051Z,51.21
2019-05-22T20:23:47.681Z,51.04
2019-05-22T20:26:22.828Z,51.08
2019-05-22T20:28:56.048Z,51.02
2019-05-22T20:31:28.000Z,51.11
2019-05-22T20:33:59.676Z,51.11
2019-05-22T20:36:31.125Z,51.12
2019-05-22T20:39:03.821Z,51.18
2019-05-22T20:41:35.921Z,51.25
2019-05-22T20:44:08.155Z,51.19
2019-05-22T20:46:41.192Z,51.22
2019-05-22T20:49:12.940Z,51.23
2019-05-22T20:51:44.415Z,51.27
2019-05-22T20:54:16.909Z,51.30
2019-05-22T20:56:50.592Z,51.28
2019-05-22T20:59:24.226Z,51.40
2019-05-22T21:01:55.676Z,51.42
2019-05-22T21:04:27.289Z,51.51
2019-05-22T21:07:02.371Z,51.58
2019-05-22T21:09:34.205Z,51.57
2019-05-22T21:12:07.221Z,51.60
2019-05-22T21:14:38.399Z,51.67
2019-05-22T21:17:09.749Z,51.66
2019-05-22T21:19:43.184Z,51.72
2019-05-22T21:22:19.618Z,51.77
2019-05-22T21:24:51.943Z,51.77
2019-05-22T21:27:24.379Z,51.87
2019-05-22T21:29:57.659Z,51.88
2019-05-22T21:32:29.204Z,51.92
2019-05-22T21:35:00.658Z,51.97
2019-05-22T21:37:32.129Z,52.02
2019-05-22T21:40:04.458Z,52.02
2019-05-22T21:42:38.048Z,51.97
2019-05-22T21:45:11.205Z,52.01
2019-05-22T21:47:43.540Z,52.04
2019-05-22T21:50:15.693Z,52.03
2019-05-22T21:52:46.978Z,52.06
2019-05-22T21:55:19.256Z,52.08
2019-05-22T21:57:50.999Z,52.13
2019-05-22T22:00:46.608Z,52.19
2019-05-22T22:03:19.663Z,52.20
2019-05-22T22:05:50.981Z,52.27
2019-05-22T22:08:22.262Z,52.27
2019-05-22T22:10:53.431Z,52.31
2019-05-22T22:13:24.802Z,52.38
2019-05-22T22:15:56.594Z,52.49
2019-05-22T22:18:28.206Z,52.54
2019-05-22T22:20:59.616Z,52.61
2019-05-22T22:23:31.040Z,52.66
2019-05-22T22:26:02.271Z,52.73
2019-05-22T22:28:34.025Z,52.76
2019-05-22T22:31:08.122Z,52.81
2019-05-22T22:33:39.564Z,52.87
2019-05-22T22:36:11.292Z,52.94
2019-05-22T22:38:43.809Z,53.01
2019-05-22T22:41:15.563Z,53.01
2019-05-22T22:43:49.129Z,53.07
2019-05-22T22:46:39.261Z,53.12
2019-05-22T22:49:15.326Z,53.17
2019-05-22T22:51:49.034Z,53.24
2019-05-22T22:54:21.582Z,53.27
2019-05-22T22:56:53.573Z,53.32
2019-05-22T22:59:24.893Z,53.42
2019-05-22T23:01:57.381Z,53.49
2019-05-22T23:04:30.178Z,53.56
2019-05-22T23:07:04.604Z,53.62
2019-05-22T23:09:36.963Z,53.65
2019-05-22T23:12:09.677Z,53.66
2019-05-22T23:14:45.587Z,53.68
2019-05-22T23:17:17.485Z,53.82
2019-05-22T23:19:47.161Z,53.86
2019-05-22T23:22:19.508Z,53.98
2019-05-22T23:24:53.170Z,54.12
2019-05-22T23:27:24.925Z,54.21
2019-05-22T23:29:56.975Z,54.31
2019-05-22T23:32:28.367Z,54.42
2019-05-22T23:35:01.300Z,54.48
2019-05-22T23:37:32.816Z,54.48
2019-05-22T23:40:06.206Z,54.51
2019-05-22T23:42:41.586Z,54.57
2019-05-22T23:45:16.183Z,54.58
2019-05-22T23:48:11.913Z,54.65
2019-05-22T23:50:44.711Z,54.70
2019-05-22T23:53:18.486Z,54.71
2019-05-22T23:55:49.997Z,54.77
2019-05-22T23:58:23.069Z,54.83
